createdAt,value
2019-03-06T00:02:15.997Z,12.03
2019-03-06T00:04:46.132Z,11.27
2019-03-06T00:07:16.412Z,14.80
2019-03-06T00:09:46.611Z,13.53
2019-03-06T00:12:16.733Z,13.93
2019-03-06T00:14:46.841Z,11.97
2019-03-06T00:17:17.058Z,13.03
2019-03-06T00:19:47.309Z,12.03
2019-03-06T00:22:17.430Z,12.17
2019-03-06T00:24:47.441Z,13.93
2019-03-06T00:27:18.103Z,12.00
2019-03-06T00:29:48.613Z,14.87
2019-03-06T00:32:18.517Z,11.70
2019-03-06T00:34:48.703Z,13.13
2019-03-06T00:37:18.903Z,12.50
2019-03-06T00:39:57.715Z,13.40
2019-03-06T00:42:28.002Z,11.73
2019-03-06T00:44:58.201Z,14.57
2019-03-06T00:47:28.262Z,12.63
2019-03-06T00:49:58.187Z,12.10
2019-03-06T00:52:28.386Z,11.70
2019-03-06T00:54:58.583Z,12.13
2019-03-06T00:57:28.486Z,13.87
2019-03-06T00:59:58.500Z,16.20
2019-03-06T01:02:28.771Z,16.10
2019-03-06T01:04:58.956Z,15.27
2019-03-06T01:07:28.955Z,15.77
2019-03-06T01:09:59.052Z,13.63
2019-03-06T01:12:29.333Z,13.10
2019-03-06T01:14:59.528Z,12.93
2019-03-06T01:17:29.553Z,11.60
2019-03-06T01:19:59.578Z,11.83
2019-03-06T01:22:29.859Z,11.93
2019-03-06T01:25:00.326Z,12.40
2019-03-06T01:27:30.785Z,11.60
2019-03-06T01:30:00.882Z,12.30
2019-03-06T01:32:31.448Z,15.87
2019-03-06T01:35:19.243Z,15.00
2019-03-06T01:37:56.917Z,15.70
2019-03-06T01:40:51.610Z,16.60
2019-03-06T01:43:27.267Z,15.27
2019-03-06T01:45:57.468Z,12.37
2019-03-06T01:48:27.475Z,13.10
2019-03-06T01:50:57.554Z,11.77
2019-03-06T01:53:27.785Z,11.93
2019-03-06T01:55:58.001Z,11.90
2019-03-06T01:58:28.118Z,10.80
2019-03-06T02:00:58.310Z,12.63
2019-03-06T02:03:28.442Z,12.63
2019-03-06T02:05:58.669Z,14.20
2019-03-06T02:08:28.871Z,12.87
2019-03-06T02:10:59.069Z,14.03
2019-03-06T02:13:29.165Z,14.80
2019-03-06T02:15:59.175Z,13.20
2019-03-06T02:18:29.398Z,15.77
2019-03-06T02:20:59.760Z,13.37
2019-03-06T02:23:29.897Z,12.17
2019-03-06T02:26:00.179Z,13.20
2019-03-06T02:28:30.548Z,12.60
2019-03-06T02:31:01.513Z,13.17
2019-03-06T02:33:31.609Z,11.67
2019-03-06T02:36:01.728Z,13.27
2019-03-06T02:38:32.017Z,12.37
2019-03-06T02:41:02.134Z,12.10
2019-03-06T02:43:32.342Z,12.17
2019-03-06T02:46:02.545Z,13.90
2019-03-06T02:48:32.435Z,13.77
2019-03-06T02:51:02.456Z,14.47
2019-03-06T02:53:32.720Z,15.63
2019-03-06T02:56:02.921Z,16.60
2019-03-06T02:59:00.649Z,16.30
2019-03-06T03:01:52.641Z,13.53
2019-03-06T03:04:30.647Z,11.70
2019-03-06T03:07:04.284Z,12.40
2019-03-06T03:09:34.300Z,11.30
2019-03-06T03:12:04.444Z,13.63
2019-03-06T03:14:34.649Z,13.83
2019-03-06T03:17:04.854Z,12.57
2019-03-06T03:19:34.943Z,13.57
2019-03-06T03:22:05.515Z,13.07
2019-03-06T03:24:35.636Z,12.97
2019-03-06T03:27:05.768Z,12.10
2019-03-06T03:29:36.086Z,13.37
2019-03-06T03:32:06.527Z,13.30
2019-03-06T03:34:36.717Z,12.50
2019-03-06T03:37:06.850Z,12.03
2019-03-06T03:39:37.173Z,12.27
2019-03-06T03:42:07.461Z,14.73
2019-03-06T03:44:37.469Z,14.97
2019-03-06T03:47:07.594Z,17.20
2019-03-06T03:49:37.803Z,14.87
2019-03-06T03:52:08.013Z,14.23
2019-03-06T03:54:38.013Z,13.77
2019-03-06T03:57:08.020Z,15.10
2019-03-06T03:59:38.218Z,15.70
2019-03-06T04:02:08.412Z,12.97
2019-03-06T04:04:38.500Z,13.73
2019-03-06T04:07:08.512Z,14.50
2019-03-06T04:09:38.718Z,12.67
2019-03-06T04:12:08.910Z,13.07
2019-03-06T04:14:38.806Z,11.40
2019-03-06T04:17:08.886Z,20.70
2019-03-06T04:19:39.083Z,15.07
2019-03-06T04:22:09.658Z,15.60
2019-03-06T04:24:39.558Z,13.33
2019-03-06T04:27:09.465Z,14.70
2019-03-06T04:29:39.788Z,11.50
2019-03-06T04:32:10.070Z,15.37
2019-03-06T04:34:40.244Z,14.83
2019-03-06T04:37:10.260Z,16.93
2019-03-06T04:39:40.468Z,16.20
2019-03-06T04:42:10.469Z,15.73
2019-03-06T04:44:40.666Z,16.63
2019-03-06T04:47:10.847Z,30.60
2019-03-06T04:49:40.891Z,28.83
2019-03-06T04:52:10.915Z,21.13
2019-03-06T04:54:41.139Z,22.97
2019-03-06T04:57:11.333Z,22.40
2019-03-06T04:59:41.441Z,23.80
2019-03-06T05:02:11.357Z,19.43
2019-03-06T05:04:41.551Z,16.70
2019-03-06T05:07:11.753Z,19.40
2019-03-06T05:09:41.832Z,21.50
2019-03-06T05:12:11.902Z,19.53
2019-03-06T05:14:42.115Z,19.13
2019-03-06T05:17:40.451Z,20.40
2019-03-06T05:20:10.743Z,20.47
2019-03-06T05:22:40.938Z,20.47
2019-03-06T05:25:11.157Z,23.60
2019-03-06T05:27:41.192Z,29.40
2019-03-06T05:30:11.699Z,26.13
2019-03-06T05:32:42.154Z,23.83
2019-03-06T05:35:28.770Z,30.40
2019-03-06T05:38:08.728Z,32.97
2019-03-06T05:40:38.956Z,32.23
2019-03-06T05:43:09.164Z,35.43
2019-03-06T05:45:39.266Z,35.83
2019-03-06T05:48:09.208Z,34.20
2019-03-06T05:50:39.415Z,37.80
2019-03-06T05:53:09.603Z,35.60
2019-03-06T05:55:39.606Z,33.60
2019-03-06T05:58:09.986Z,40.23
2019-03-06T06:00:40.170Z,43.43
2019-03-06T06:03:10.286Z,40.20
2019-03-06T06:05:40.502Z,38.40
2019-03-06T06:08:10.703Z,40.07
2019-03-06T06:10:40.727Z,42.23
2019-03-06T06:13:10.751Z,40.70
2019-03-06T06:15:40.948Z,35.73
2019-03-06T06:18:11.122Z,25.43
2019-03-06T06:20:41.153Z,20.93
2019-03-06T06:23:17.147Z,23.63
2019-03-06T06:25:47.372Z,47.40
2019-03-06T06:28:17.632Z,26.23
2019-03-06T06:30:47.741Z,22.43
2019-03-06T06:33:17.870Z,21.03
2019-03-06T06:35:48.072Z,44.17
2019-03-06T06:38:18.264Z,30.00
2019-03-06T06:40:48.310Z,22.90
2019-03-06T06:43:18.691Z,25.87
2019-03-06T06:45:48.704Z,25.70
2019-03-06T06:48:23.773Z,26.50
2019-03-06T06:51:01.659Z,26.47
2019-03-06T06:53:42.561Z,24.40
2019-03-06T06:57:05.155Z,28.10
2019-03-06T06:59:58.095Z,27.30
2019-03-06T07:03:41.920Z,24.90
2019-03-06T07:06:33.803Z,18.13
2019-03-06T07:09:15.783Z,16.30
2019-03-06T07:12:04.632Z,15.97
2019-03-06T07:14:59.753Z,11.07
2019-03-06T07:17:47.030Z,13.00
2019-03-06T07:20:36.014Z,17.43
2019-03-06T07:23:24.968Z,17.80
2019-03-06T07:26:08.913Z,13.63
2019-03-06T07:28:50.437Z,15.10
2019-03-06T07:31:42.818Z,14.57
2019-03-06T07:34:30.375Z,13.80
2019-03-06T07:37:28.714Z,12.57
2019-03-06T07:40:01.136Z,12.50
2019-03-06T07:42:59.451Z,11.33
2019-03-06T07:45:59.540Z,12.13
2019-03-06T07:48:48.581Z,11.50
2019-03-06T07:51:26.730Z,13.90
2019-03-06T07:54:15.175Z,14.03
2019-03-06T07:56:51.840Z,11.93
2019-03-06T07:59:21.764Z,13.40
2019-03-06T08:01:58.299Z,18.03
2019-03-06T08:04:28.499Z,18.23
2019-03-06T08:07:17.044Z,12.30
2019-03-06T08:09:47.061Z,12.50
2019-03-06T08:12:34.842Z,15.37
2019-03-06T08:15:33.371Z,11.67
2019-03-06T08:18:18.483Z,11.77
2019-03-06T08:21:02.264Z,11.87
2019-03-06T08:24:00.296Z,12.90
2019-03-06T08:26:30.196Z,9.97
2019-03-06T08:29:00.340Z,6.93
2019-03-06T08:31:55.632Z,7.87
2019-03-06T08:34:26.603Z,8.80
2019-03-06T08:36:56.634Z,6.50
2019-03-06T08:39:26.819Z,7.37
2019-03-06T08:41:57.075Z,5.83
2019-03-06T08:44:27.798Z,5.70
2019-03-06T08:47:15.465Z,8.40
2019-03-06T08:50:13.463Z,8.47
2019-03-06T08:53:17.446Z,11.77
2019-03-06T08:56:04.850Z,14.70
2019-03-06T08:58:52.445Z,12.07
2019-03-06T09:01:43.730Z,10.20
2019-03-06T09:04:51.086Z,7.00
2019-03-06T09:07:38.714Z,15.97
2019-03-06T09:10:32.341Z,8.37
2019-03-06T09:13:21.349Z,6.70
2019-03-06T09:16:13.524Z,7.30
2019-03-06T09:19:01.436Z,8.43
2019-03-06T09:21:46.554Z,7.70
2019-03-06T09:24:35.552Z,8.33
2019-03-06T09:27:25.612Z,6.10
2019-03-06T09:30:16.218Z,6.60
2019-03-06T09:32:59.242Z,5.00
2019-03-06T09:35:40.712Z,7.03
2019-03-06T09:38:28.615Z,6.77
2019-03-06T09:41:20.889Z,8.17
2019-03-06T09:44:12.989Z,8.37
2019-03-06T09:47:17.277Z,4.50
2019-03-06T09:50:03.473Z,4.40
2019-03-06T09:53:04.403Z,5.47
2019-03-06T09:55:53.407Z,4.37
2019-03-06T09:58:41.040Z,9.30
2019-03-06T10:01:28.822Z,4.67
2019-03-06T10:04:35.742Z,5.70
2019-03-06T10:07:30.046Z,5.30
2019-03-06T10:10:17.977Z,4.60
2019-03-06T10:13:03.564Z,4.10
2019-03-06T10:15:52.572Z,4.10
2019-03-06T10:18:44.861Z,6.00
2019-03-06T10:21:15.058Z,4.30
2019-03-06T10:23:45.064Z,4.23
2019-03-06T10:26:15.246Z,2.93
2019-03-06T10:28:45.357Z,2.60
2019-03-06T10:31:15.749Z,2.93
2019-03-06T10:33:46.279Z,3.27
2019-03-06T10:36:17.952Z,2.70
2019-03-06T10:38:48.338Z,2.70
2019-03-06T10:41:18.754Z,3.00
2019-03-06T10:43:49.633Z,3.83
2019-03-06T10:46:20.062Z,3.60
2019-03-06T10:48:50.243Z,4.07
2019-03-06T10:51:20.782Z,4.00
2019-03-06T10:53:51.060Z,4.13
2019-03-06T10:56:21.402Z,2.67
2019-03-06T10:58:51.649Z,3.30
2019-03-06T11:01:22.176Z,4.90
2019-03-06T11:04:11.226Z,3.60
2019-03-06T11:06:41.671Z,2.80
2019-03-06T11:09:12.992Z,3.67
2019-03-06T11:11:43.203Z,3.70
2019-03-06T11:14:13.721Z,4.77
2019-03-06T11:16:43.914Z,3.17
2019-03-06T11:19:15.606Z,2.80
2019-03-06T11:21:45.844Z,3.63
2019-03-06T11:24:15.938Z,4.10
2019-03-06T11:26:46.409Z,3.80
2019-03-06T11:29:16.608Z,3.63
2019-03-06T11:31:46.803Z,2.80
2019-03-06T11:34:18.001Z,4.57
2019-03-06T11:36:48.360Z,3.00
2019-03-06T11:39:18.999Z,2.40
2019-03-06T11:41:49.166Z,3.63
2019-03-06T11:44:19.354Z,4.60
2019-03-06T11:46:49.542Z,5.50
2019-03-06T11:49:19.466Z,5.27
2019-03-06T11:51:49.602Z,3.40
2019-03-06T11:54:19.814Z,4.37
2019-03-06T11:56:49.952Z,4.77
2019-03-06T11:59:20.341Z,5.27
2019-03-06T12:01:50.630Z,5.00
2019-03-06T12:04:20.859Z,3.83
2019-03-06T12:06:51.025Z,5.53
2019-03-06T12:09:29.693Z,4.43
2019-03-06T12:12:00.488Z,3.20
2019-03-06T12:14:30.773Z,3.53
2019-03-06T12:17:00.918Z,3.73
2019-03-06T12:19:30.993Z,3.60
2019-03-06T12:22:01.357Z,2.30
2019-03-06T12:24:31.575Z,5.10
2019-03-06T12:27:01.698Z,4.53
2019-03-06T12:29:31.917Z,5.27
2019-03-06T12:32:03.504Z,3.87
2019-03-06T12:34:33.963Z,4.63
2019-03-06T12:37:04.265Z,4.50
2019-03-06T12:39:34.489Z,4.73
2019-03-06T12:42:13.734Z,2.60
2019-03-06T12:44:36.832Z,2.70
2019-03-06T12:47:06.974Z,2.43
2019-03-06T12:49:37.186Z,3.83
2019-03-06T12:52:07.363Z,2.17
2019-03-06T12:54:37.399Z,1.30
2019-03-06T12:57:07.968Z,3.17
2019-03-06T12:59:38.163Z,2.80
2019-03-06T13:02:08.441Z,3.50
2019-03-06T13:04:38.514Z,2.80
2019-03-06T13:07:08.675Z,2.10
2019-03-06T13:09:38.826Z,2.00
2019-03-06T13:12:09.183Z,2.47
2019-03-06T13:14:39.382Z,2.90
2019-03-06T13:17:09.432Z,1.67
2019-03-06T13:19:39.408Z,2.00
2019-03-06T13:22:11.447Z,2.40
2019-03-06T13:24:41.468Z,2.47
2019-03-06T13:27:11.508Z,2.13
2019-03-06T13:29:41.593Z,3.27
2019-03-06T13:32:12.348Z,2.67
2019-03-06T13:34:51.638Z,2.70
2019-03-06T13:37:21.777Z,1.47
2019-03-06T13:39:51.695Z,1.77
2019-03-06T13:42:21.754Z,1.70
2019-03-06T13:44:52.010Z,1.50
2019-03-06T13:47:22.076Z,1.17
2019-03-06T13:49:52.282Z,1.57
2019-03-06T13:52:22.428Z,1.33
2019-03-06T13:54:52.602Z,0.80
2019-03-06T13:57:22.750Z,0.80
2019-03-06T13:59:52.988Z,0.57
2019-03-06T14:02:23.151Z,0.63
2019-03-06T14:04:53.650Z,1.03
2019-03-06T14:07:23.792Z,1.60
2019-03-06T14:09:53.988Z,1.50
2019-03-06T14:12:24.135Z,1.23
2019-03-06T14:14:54.137Z,0.83
2019-03-06T14:17:24.236Z,1.40
2019-03-06T14:19:54.445Z,2.67
2019-03-06T14:22:24.617Z,1.10
2019-03-06T14:24:54.792Z,1.40
2019-03-06T14:27:25.061Z,0.70
2019-03-06T14:29:55.178Z,0.90
2019-03-06T14:32:25.562Z,1.00
2019-03-06T14:34:56.350Z,1.17
2019-03-06T14:37:26.659Z,0.93
2019-03-06T14:39:56.950Z,0.87
2019-03-06T14:42:27.663Z,1.20
2019-03-06T14:44:58.264Z,0.80
2019-03-06T14:47:28.448Z,1.27
2019-03-06T14:49:58.485Z,1.33
2019-03-06T14:52:28.725Z,0.97
2019-03-06T14:54:58.918Z,2.70
2019-03-06T14:57:29.073Z,2.67
2019-03-06T14:59:58.978Z,4.13
2019-03-06T15:02:29.069Z,4.10
2019-03-06T15:04:59.277Z,4.13
2019-03-06T15:07:29.411Z,3.03
2019-03-06T15:09:59.530Z,3.43
2019-03-06T15:12:31.488Z,4.60
2019-03-06T15:15:01.833Z,8.87
2019-03-06T15:17:31.905Z,5.37
2019-03-06T15:20:01.929Z,4.03
2019-03-06T15:22:38.368Z,6.07
2019-03-06T15:25:04.314Z,6.93
2019-03-06T15:27:34.451Z,7.70
2019-03-06T15:30:06.133Z,8.73
2019-03-06T15:32:36.210Z,10.30
2019-03-06T15:35:06.456Z,9.50
2019-03-06T15:37:36.632Z,13.03
2019-03-06T15:40:09.398Z,15.00
2019-03-06T15:42:39.584Z,17.10
2019-03-06T15:45:10.097Z,18.43
2019-03-06T15:47:40.228Z,15.90
2019-03-06T15:50:10.143Z,16.53
2019-03-06T15:52:40.320Z,17.27
2019-03-06T15:55:11.004Z,18.00
2019-03-06T15:57:41.257Z,20.53
2019-03-06T16:00:23.347Z,18.40
2019-03-06T16:02:53.549Z,20.53
2019-03-06T16:05:23.557Z,29.67
2019-03-06T16:07:53.690Z,22.70
2019-03-06T16:10:23.982Z,28.13
2019-03-06T16:12:54.212Z,39.70
2019-03-06T16:15:25.820Z,44.80
2019-03-06T16:17:57.389Z,36.50
2019-03-06T16:20:27.843Z,47.20
2019-03-06T16:22:58.101Z,71.10
2019-03-06T16:25:36.403Z,43.63
2019-03-06T16:28:00.392Z,42.40
2019-03-06T16:30:31.188Z,35.87
2019-03-06T16:33:01.510Z,35.27
2019-03-06T16:35:31.967Z,66.73
2019-03-06T16:38:02.493Z,45.70
2019-03-06T16:40:33.036Z,42.70
2019-03-06T16:43:03.344Z,38.23
2019-03-06T16:45:33.712Z,43.10
2019-03-06T16:48:03.971Z,28.90
2019-03-06T16:50:34.028Z,28.57
2019-03-06T16:53:04.372Z,30.60
2019-03-06T16:55:34.685Z,35.90
2019-03-06T16:58:05.125Z,29.40
2019-03-06T17:00:35.303Z,23.70
2019-03-06T17:03:05.738Z,26.00
2019-03-06T17:05:36.165Z,26.73
2019-03-06T17:08:06.866Z,48.77
2019-03-06T17:10:39.012Z,54.77
2019-03-06T17:13:09.491Z,38.53
2019-03-06T17:15:39.701Z,38.67
2019-03-06T17:18:09.928Z,17.33
2019-03-06T17:20:40.259Z,28.87
2019-03-06T17:23:10.482Z,34.00
2019-03-06T17:25:40.611Z,31.90
2019-03-06T17:28:11.146Z,30.87
2019-03-06T17:30:41.899Z,30.93
2019-03-06T17:33:12.626Z,35.23
2019-03-06T17:35:42.950Z,30.57
2019-03-06T17:38:13.696Z,26.37
2019-03-06T17:40:44.660Z,21.93
2019-03-06T17:43:15.116Z,27.60
2019-03-06T17:45:46.083Z,24.30
2019-03-06T17:48:16.373Z,26.60
2019-03-06T17:50:46.497Z,26.57
2019-03-06T17:53:16.608Z,31.40
2019-03-06T17:55:46.854Z,41.63
2019-03-06T17:58:17.232Z,40.23
2019-03-06T18:00:52.729Z,44.20
2019-03-06T18:03:39.827Z,39.00
2019-03-06T18:06:10.055Z,19.40
2019-03-06T18:08:40.534Z,24.67
2019-03-06T18:11:10.681Z,23.40
2019-03-06T18:13:40.635Z,18.00
2019-03-06T18:16:10.887Z,19.13
2019-03-06T18:18:41.131Z,17.33
2019-03-06T18:21:11.555Z,18.40
2019-03-06T18:23:41.704Z,18.90
2019-03-06T18:26:12.165Z,19.83
2019-03-06T18:28:42.385Z,17.67
2019-03-06T18:31:12.723Z,13.77
2019-03-06T18:33:42.952Z,16.53
2019-03-06T18:36:13.451Z,19.30
2019-03-06T18:38:43.701Z,16.10
2019-03-06T18:41:14.104Z,12.60
2019-03-06T18:43:44.314Z,14.37
2019-03-06T18:46:14.447Z,12.30
2019-03-06T18:48:44.655Z,12.10
2019-03-06T18:51:14.877Z,24.93
2019-03-06T18:53:45.114Z,23.37
2019-03-06T18:56:15.338Z,16.93
2019-03-06T18:58:45.367Z,15.13
2019-03-06T19:01:15.596Z,15.53
2019-03-06T19:03:45.980Z,15.97
2019-03-06T19:06:16.019Z,21.13
2019-03-06T19:08:46.308Z,20.97
2019-03-06T19:11:17.247Z,22.00
2019-03-06T19:13:47.533Z,15.27
2019-03-06T19:16:17.761Z,16.00
2019-03-06T19:18:49.507Z,16.27
2019-03-06T19:21:19.634Z,21.40
2019-03-06T19:23:49.865Z,39.53
2019-03-06T19:26:20.103Z,27.73
2019-03-06T19:28:50.385Z,21.90
2019-03-06T19:31:20.622Z,25.60
2019-03-06T19:33:50.749Z,30.27
2019-03-06T19:36:20.984Z,26.00
2019-03-06T19:38:51.726Z,17.20
2019-03-06T19:41:24.541Z,14.27
2019-03-06T19:43:55.243Z,13.47
2019-03-06T19:46:25.559Z,17.63
2019-03-06T19:48:55.731Z,21.90
2019-03-06T19:51:26.044Z,22.67
2019-03-06T19:53:56.368Z,19.13
2019-03-06T19:56:26.653Z,30.03
2019-03-06T19:58:56.906Z,32.83
2019-03-06T20:01:27.221Z,33.47
2019-03-06T20:03:57.516Z,32.83
2019-03-06T20:06:27.686Z,30.87
2019-03-06T20:08:57.918Z,28.50
2019-03-06T20:11:28.532Z,27.70
2019-03-06T20:13:58.849Z,32.00
2019-03-06T20:16:28.917Z,24.63
2019-03-06T20:18:59.096Z,22.17
2019-03-06T20:21:29.403Z,24.77
2019-03-06T20:23:59.705Z,28.67
2019-03-06T20:26:30.035Z,26.47
2019-03-06T20:29:00.283Z,35.50
2019-03-06T20:31:30.529Z,36.20
2019-03-06T20:34:00.821Z,27.73
2019-03-06T20:36:30.873Z,27.50
2019-03-06T20:39:01.283Z,35.27
2019-03-06T20:41:33.021Z,28.20
2019-03-06T20:44:03.395Z,26.97
2019-03-06T20:46:33.589Z,28.03
2019-03-06T20:49:03.791Z,26.43
2019-03-06T20:51:34.101Z,30.93
2019-03-06T20:54:04.744Z,31.50
2019-03-06T20:56:34.776Z,38.43
2019-03-06T20:59:04.995Z,37.00
2019-03-06T21:01:35.499Z,40.00
2019-03-06T21:04:05.830Z,34.80
2019-03-06T21:06:36.499Z,28.90
2019-03-06T21:09:08.419Z,24.67
2019-03-06T21:11:38.419Z,20.07
2019-03-06T21:14:08.632Z,14.17
2019-03-06T21:16:38.954Z,14.70
2019-03-06T21:19:09.287Z,13.50
2019-03-06T21:21:39.318Z,13.80
2019-03-06T21:24:09.345Z,15.40
2019-03-06T21:26:39.665Z,16.67
2019-03-06T21:29:09.915Z,15.03
2019-03-06T21:31:40.101Z,11.97
2019-03-06T21:34:10.204Z,10.47
2019-03-06T21:36:40.441Z,7.37
2019-03-06T21:39:22.439Z,9.33
2019-03-06T21:41:52.785Z,9.27
2019-03-06T21:44:22.895Z,7.20
2019-03-06T21:46:53.220Z,6.27
2019-03-06T21:49:23.478Z,8.03
2019-03-06T21:51:54.133Z,7.63
2019-03-06T21:54:24.511Z,7.70
2019-03-06T21:56:54.642Z,8.70
2019-03-06T21:59:24.673Z,9.37
2019-03-06T22:01:54.917Z,8.70
2019-03-06T22:04:25.501Z,9.43
2019-03-06T22:06:55.664Z,10.33
2019-03-06T22:09:25.810Z,9.27
2019-03-06T22:11:56.050Z,7.50
2019-03-06T22:14:26.331Z,8.03
2019-03-06T22:16:56.367Z,8.70
2019-03-06T22:19:26.522Z,7.50
2019-03-06T22:21:56.800Z,7.57
2019-03-06T22:24:27.077Z,7.13
2019-03-06T22:26:57.110Z,6.20
2019-03-06T22:29:27.323Z,5.60
2019-03-06T22:31:57.519Z,6.60
2019-03-06T22:34:27.720Z,5.50
2019-03-06T22:36:57.963Z,7.33
2019-03-06T22:39:28.254Z,6.97
2019-03-06T22:41:58.386Z,5.53
2019-03-06T22:44:28.312Z,5.00
2019-03-06T22:46:58.538Z,9.77
2019-03-06T22:49:29.018Z,9.60
2019-03-06T22:51:59.104Z,8.57
2019-03-06T22:54:29.135Z,6.43
2019-03-06T22:56:59.364Z,5.53
2019-03-06T22:59:29.565Z,7.10
2019-03-06T23:01:59.957Z,6.87
2019-03-06T23:04:30.178Z,9.47
2019-03-06T23:07:00.371Z,8.37
2019-03-06T23:09:30.398Z,5.03
2019-03-06T23:12:00.679Z,5.43
2019-03-06T23:14:30.864Z,4.60
2019-03-06T23:17:00.987Z,5.83
2019-03-06T23:19:31.099Z,6.20
2019-03-06T23:22:01.313Z,6.27
2019-03-06T23:24:31.504Z,5.27
2019-03-06T23:27:01.420Z,6.63
2019-03-06T23:29:31.474Z,5.67
2019-03-06T23:32:01.694Z,6.90
2019-03-06T23:34:31.897Z,7.47
2019-03-06T23:37:01.903Z,4.70
2019-03-06T23:39:32.095Z,5.63
2019-03-06T23:42:02.609Z,6.17
2019-03-06T23:44:33.002Z,5.53
2019-03-06T23:47:03.129Z,5.30
2019-03-06T23:49:33.306Z,5.37
2019-03-06T23:52:10.685Z,5.60
2019-03-06T23:54:40.722Z,5.70
2019-03-06T23:57:10.928Z,4.80
2019-03-06T23:59:41.110Z,4.93
